Time;durP1;ratioP1;P1;durP2;ratioP2;P2;SDS_P1;SDS_P2;PMS_P1;PMS_P2;Temp;Humidity;BMP_temperature;BMP_pressure;BME280_temperature;BME280_humidity;BME280_pressure;Samples;Min_cycle;Max_cycle;Signal;HPM_P1;HPM_P2
2023/03/30 00:09:21;;;;;;;20.08;4.35;;;;;;;18.29;70.81;101033.50;12986042;22;97159;-83
2023/03/30 00:14:29;;;;;;;13.55;3.22;;;;;;;18.30;70.36;101032.56;12995707;22;98234;-82
2023/03/30 01:11:16;;;;;;;17.92;3.90;;;;;;;17.92;72.81;100979.72;12848430;22;97102;-81
2023/03/30 01:16:26;;;;;;;;;;;;;;;17.86;73.74;100969.44;12996280;22;99102;-80
2023/03/30 01:22:06;;;;;;;15.38;4.40;;;;;;;17.88;72.62;100972.84;12995864;22;98908;-80
2023/03/30 01:27:37;;;;;;;17.42;4.13;;;;;;;17.66;73.37;100984.81;12995517;22;98909;-81
2023/03/30 01:33:22;;;;;;;13.13;3.33;;;;;;;17.49;74.05;100968.97;12995590;22;98992;-82
2023/03/30 01:39:07;;;;;;;21.58;4.97;;;;;;;17.45;74.91;100976.22;12931858;22;98332;-81
2023/03/30 01:44:33;;;;;;;22.42;4.57;;;;;;;17.43;74.21;100975.44;12971695;22;98910;-80
2023/03/30 01:49:46;;;;;;;13.98;3.88;;;;;;;17.27;74.78;100977.28;12995270;22;98942;-81
2023/03/30 01:54:59;;;;;;;17.48;4.00;;;;;;;17.35;74.67;100963.50;12995427;22;98933;-81
2023/03/30 02:00:13;;;;;;;13.75;3.80;;;;;;;17.28;74.54;100975.44;12995297;22;99157;-80
2023/03/30 02:05:21;;;;;;;18.52;4.25;;;;;;;17.39;74.48;100975.72;12994802;22;99409;-81
2023/03/30 02:46:13;;;;;;;24.13;5.28;;;;;;;17.26;75.39;101007.44;12853577;22;96796;-81
2023/03/30 02:51:37;;;;;;;;;;;;;;;17.29;75.06;101006.44;12802489;22;98866;-81
2023/03/30 02:56:47;;;;;;;25.80;5.72;;;;;;;17.26;74.48;100994.16;12802767;22;99063;-80
2023/03/30 03:01:58;;;;;;;26.23;5.60;;;;;;;17.25;74.24;101013.72;12802415;22;99344;-80
2023/03/30 03:07:31;;;;;;;;;;;;;;;;;;;;;
2023/03/30 04:07:17;;;;;;;;;;;;;;;;;;;;;
2023/03/30 04:12:20;;;;;;;19.98;5.00;;;;;;;16.94;74.29;100998.59;12931557;22;99347;-80
2023/03/30 05:13:52;;;;;;;;;;;;;;;;;;;;;
2023/03/30 05:19:01;;;;;;;23.33;4.40;;;;;;;16.38;74.57;101047.63;12928988;22;99294;-80
2023/03/30 05:24:25;;;;;;;17.42;4.13;;;;;;;16.27;74.84;101044.66;12929340;22;99286;-81
2023/03/30 05:29:31;;;;;;;20.48;4.55;;;;;;;16.16;75.05;101042.53;12928920;22;99154;-80
2023/03/30 05:34:39;;;;;;;18.10;4.75;;;;;;;16.30;74.63;101041.84;12928935;22;99075;-81
2023/03/30 05:39:46;;;;;;;19.27;4.95;;;;;;;16.06;75.00;101038.63;12927225;22;99320;-81
2023/03/30 05:44:53;;;;;;;19.20;4.57;;;;;;;16.09;75.17;101032.28;12928516;22;99260;-81
2023/03/30 05:50:07;;;;;;;20.13;4.97;;;;;;;16.07;74.64;101044.78;12928527;22;98945;-81
2023/03/30 05:55:15;;;;;;;19.30;4.47;;;;;;;15.80;76.21;101039.88;12927890;22;98983;-81
2023/03/30 06:00:23;;;;;;;23.67;4.80;;;;;;;15.70;76.02;101049.22;12928496;22;98859;-82
2023/03/30 06:51:23;;;;;;;21.02;5.18;;;;;;;15.56;76.05;101106.53;12918660;22;97070;-82
2023/03/30 06:56:33;;;;;;;15.93;4.53;;;;;;;15.60;75.63;101098.34;12927860;22;99009;-81
2023/03/30 07:01:39;;;;;;;18.50;4.95;;;;;;;15.59;76.09;101117.00;12927750;22;98857;-81
2023/03/30 07:06:44;;;;;;;16.48;4.38;;;;;;;15.66;75.77;101108.69;12927490;22;98970;-80
2023/03/30 07:12:46;;;;;;;;;;;;;;;;;;;;;
2023/03/30 08:17:11;;;;;;;13.48;3.63;;;;;;;24.00;51.83;101132.25;12909713;22;98473;-83
2023/03/30 08:22:17;;;;;;;9.85;3.60;;;;;;;25.02;49.01;101136.25;12929327;22;98989;-82
2023/03/30 08:27:24;;;;;;;8.82;3.30;;;;;;;25.33;45.72;101143.41;12928099;22;99237;-81
2023/03/30 08:32:34;;;;;;;10.23;3.58;;;;;;;25.29;43.60;101147.34;12929089;22;99137;-83
2023/03/30 08:43:20;;;;;;;8.80;3.65;;;;;;;25.70;40.71;101164.34;12927681;22;99078;-82
2023/03/30 08:48:36;;;;;;;11.63;3.85;;;;;;;25.83;41.05;101173.03;12929138;22;98823;-83
2023/03/30 08:53:42;;;;;;;12.73;4.00;;;;;;;25.40;41.63;101169.66;12929008;22;99318;-82
2023/03/30 08:58:55;;;;;;;9.68;3.67;;;;;;;25.12;41.10;101180.28;12929140;22;99179;-83
2023/03/30 09:04:09;;;;;;;;;;;;;;;24.46;42.47;101171.44;12930468;22;99007;-83
2023/03/30 09:50:08;;;;;;;11.52;3.63;;;;;;;26.08;38.47;101171.72;12896628;22;96905;-83
2023/03/30 09:55:28;;;;;;;11.48;3.78;;;;;;;25.69;38.87;101162.63;12928301;22;98820;-83
2023/03/30 10:00:34;;;;;;;10.52;3.35;;;;;;;26.57;37.40;101160.94;12928944;22;98838;-83
2023/03/30 10:05:40;;;;;;;9.48;3.10;;;;;;;26.19;37.58;101150.03;12928562;22;99001;-82
2023/03/30 10:10:53;;;;;;;;;;;;;;;;;;;;;
2023/03/30 10:16:15;;;;;;;;;;;;;;;;;;;;;
2023/03/30 11:00:53;;;;;;;14.50;4.47;;;;;;;23.34;43.08;101192.19;12927892;22;97188;-83
2023/03/30 11:06:02;;;;;;;14.95;4.20;;;;;;;22.88;44.48;101199.38;12927655;22;98876;-82
2023/03/30 11:11:16;;;;;;;10.63;3.40;;;;;;;24.71;40.89;101200.72;12926546;22;99323;-82
2023/03/30 11:16:31;;;;;;;15.65;4.60;;;;;;;23.65;43.72;101197.78;12927593;22;99112;-81
2023/03/30 11:21:45;;;;;;;11.82;3.50;;;;;;;23.85;43.51;101190.81;12927175;22;98905;-82
2023/03/30 11:26:53;;;;;;;9.32;3.70;;;;;;;22.74;44.48;101176.22;12927249;22;98998;-83
2023/03/30 11:32:21;;;;;;;;;;;;;;;;;;;;;
2023/03/30 11:37:52;;;;;;;;;;;;;;;;;;;;;
2023/03/30 12:38:22;;;;;;;13.27;3.88;;;;;;;24.45;41.23;101140.13;12865738;22;98900;-83
2023/03/30 12:43:47;;;;;;;13.15;4.00;;;;;;;23.86;42.78;101137.91;12865934;22;98827;-84
2023/03/30 12:49:04;;;;;;;13.40;3.88;;;;;;;24.08;41.76;101124.44;12865218;22;98956;-83
2023/03/30 12:54:39;;;;;;;;;;;;;;;;;;;;;
2023/03/30 13:00:44;;;;;;;14.77;4.35;;;;;;;24.26;41.82;101150.66;12840612;22;98586;-83
2023/03/30 13:05:55;;;;;;;14.90;4.40;;;;;;;23.97;42.04;101143.25;12864387;22;98975;-83
2023/03/30 13:11:17;;;;;;;16.15;4.63;;;;;;;23.95;43.07;101164.91;12864964;22;99012;-83
2023/03/30 13:16:46;;;;;;;16.42;4.80;;;;;;;23.20;43.80;101179.00;12864729;22;99004;-83
2023/03/30 13:21:56;;;;;;;18.70;4.78;;;;;;;22.56;45.57;101164.16;12864289;22;98971;-83
2023/03/30 13:27:23;;;;;;;17.80;4.60;;;;;;;23.97;44.15;101138.75;12864641;22;98751;-82
2023/03/30 13:32:52;;;;;;;15.60;4.75;;;;;;;23.04;44.42;101114.00;12864635;22;98572;-82
2023/03/30 13:38:34;;;;;;;15.38;4.40;;;;;;;23.26;44.34;101133.72;12920780;22;99198;-83
2023/03/30 13:43:51;;;;;;;16.63;4.75;;;;;;;23.58;44.94;101150.00;12893888;22;98958;-84
2023/03/30 13:49:14;;;;;;;17.10;4.80;;;;;;;22.76;45.88;101176.97;12928694;22;97840;-83
2023/03/30 13:54:21;;;;;;;15.93;4.80;;;;;;;22.71;46.67;101162.19;12927093;22;99282;-84
2023/03/30 13:59:30;;;;;;;18.90;4.53;;;;;;;22.79;46.06;101151.75;12928522;22;98690;-83
2023/03/30 14:04:37;;;;;;;17.52;4.18;;;;;;;23.09;45.67;101155.66;12928143;22;99234;-83
2023/03/30 14:09:41;;;;;;;17.42;4.75;;;;;;;22.69;45.73;101153.38;12928433;22;98929;-83
2023/03/30 14:14:48;;;;;;;17.70;4.15;;;;;;;23.09;46.21;101154.78;12927824;22;97904;-84
2023/03/30 14:20:08;;;;;;;19.15;5.07;;;;;;;22.61;46.54;101135.16;12928495;22;98985;-83
2023/03/30 14:25:23;;;;;;;13.10;3.78;;;;;;;22.64;47.18;101095.56;12927883;22;98903;-83
2023/03/30 14:30:30;;;;;;;18.30;5.05;;;;;;;22.64;46.43;101083.97;12928662;22;97764;-84
2023/03/30 14:35:33;;;;;;;18.40;4.97;;;;;;;22.67;46.67;101093.59;12927768;22;98965;-84
2023/03/30 14:40:41;;;;;;;21.67;5.27;;;;;;;21.95;47.26;101083.88;12928195;22;99323;-83
2023/03/30 14:45:46;;;;;;;17.20;4.65;;;;;;;22.36;46.26;101076.31;12926921;22;99130;-83
2023/03/30 14:50:53;;;;;;;14.88;4.43;;;;;;;22.33;45.82;101068.50;12928097;22;99066;-84
2023/03/30 14:55:59;;;;;;;16.15;4.38;;;;;;;22.41;45.82;101079.50;12927805;22;99192;-83
2023/03/30 15:01:10;;;;;;;15.68;4.38;;;;;;;22.25;45.45;101055.66;12927218;22;98900;-84
2023/03/30 15:06:22;;;;;;;14.65;3.97;;;;;;;21.73;46.59;101065.81;12927601;22;99168;-83
2023/03/30 16:16:39;;;;;;;19.00;4.65;;;;;;;21.28;48.58;101036.97;12918453;22;97527;-85
2023/03/30 16:21:43;;;;;;;16.02;3.92;;;;;;;21.12;48.67;101036.34;12929324;22;98854;-83
2023/03/30 16:26:49;;;;;;;;;;;;;;;20.83;49.97;101018.75;12929957;22;99080;-83
2023/03/30 16:31:54;;;;;;;15.10;3.90;;;;;;;20.88;49.24;101011.31;12928400;22;98903;-84
2023/03/30 16:36:58;;;;;;;18.50;4.50;;;;;;;20.70;49.39;101029.47;12928718;22;97865;-84
2023/03/30 16:42:02;;;;;;;19.63;4.38;;;;;;;20.57;49.77;101028.59;12928511;22;98862;-83
2023/03/30 16:47:15;;;;;;;15.30;4.50;;;;;;;20.48;50.16;101025.72;12928652;22;99030;-83
2023/03/30 16:52:18;;;;;;;18.40;4.70;;;;;;;20.38;50.53;101042.38;12929326;22;99128;-84
2023/03/30 16:57:24;;;;;;;20.50;4.95;;;;;;;20.24;50.37;101007.66;12928925;22;98992;-83
2023/03/30 17:02:28;;;;;;;22.10;4.45;;;;;;;20.16;50.34;101031.38;12928763;22;99021;-83
2023/03/30 17:07:34;;;;;;;18.25;4.70;;;;;;;20.09;51.76;101046.09;12930051;22;99009;-83
2023/03/30 17:12:40;;;;;;;16.15;4.70;;;;;;;19.94;52.15;101047.09;12929033;22;98904;-83
2023/03/30 17:17:51;;;;;;;20.40;5.60;;;;;;;19.97;52.86;101056.72;12928813;22;99146;-84
2023/03/30 17:23:16;;;;;;;19.88;5.05;;;;;;;19.91;53.40;101038.44;12927397;22;99283;-83
2023/03/30 17:29:01;;;;;;;;;;;;;;;;;;;;;
2023/03/30 20:31:16;;;;;;;24.13;5.68;;;;;;;18.10;63.38;101181.09;12912357;22;97517;-84
2023/03/30 20:36:19;;;;;;;;;;;;;;;18.05;63.74;101174.31;12929872;22;99369;-82
2023/03/30 20:41:29;;;;;;;21.98;6.25;;;;;;;18.10;63.15;101165.13;12929027;22;96743;-83
2023/03/30 20:46:36;;;;;;;17.92;5.25;;;;;;;18.11;63.50;101180.16;12930213;22;99035;-83
2023/03/30 20:51:42;;;;;;;20.42;5.25;;;;;;;18.17;63.43;101187.81;12929353;22;99162;-82
2023/03/30 20:56:46;;;;;;;25.58;5.63;;;;;;;18.09;63.32;101176.72;12929056;22;99264;-83
2023/03/30 21:01:57;;;;;;;28.67;5.47;;;;;;;18.15;63.58;101187.03;12927181;22;99027;-84
2023/03/30 21:07:05;;;;;;;22.55;6.07;;;;;;;18.12;63.65;101184.50;12928384;22;96739;-82
2023/03/30 21:12:11;;;;;;;29.58;6.07;;;;;;;18.01;63.77;101186.06;12928872;22;99262;-83
2023/03/30 21:17:16;;;;;;;23.88;5.78;;;;;;;18.04;63.80;101175.22;12929034;22;99083;-83
2023/03/30 21:22:20;;;;;;;18.70;5.30;;;;;;;18.09;63.77;101192.69;12928853;22;98840;-82
2023/03/30 21:27:26;;;;;;;19.90;4.78;;;;;;;18.03;63.99;101179.72;12928785;22;99203;-82
2023/03/30 21:32:35;;;;;;;22.40;6.20;;;;;;;18.07;64.35;101180.41;12928120;22;99039;-83
2023/03/30 21:37:41;;;;;;;21.38;5.05;;;;;;;18.08;64.08;101168.81;12929846;22;99350;-83
2023/03/30 21:42:51;;;;;;;31.52;6.13;;;;;;;18.07;64.72;101164.44;12928385;22;98567;-83
2023/03/30 21:48:00;;;;;;;27.30;5.60;;;;;;;18.00;65.36;101153.25;12927657;22;98183;-84
2023/03/30 21:53:09;;;;;;;23.75;4.97;;;;;;;17.96;65.79;101148.19;12927189;22;98938;-82
2023/03/30 21:58:12;;;;;;;26.95;7.18;;;;;;;17.87;66.39;101130.91;12928077;22;98650;-83
2023/03/30 22:03:19;;;;;;;22.77;5.25;;;;;;;17.87;67.18;101140.69;12928088;22;98450;-82
2023/03/30 22:08:35;;;;;;;27.95;6.60;;;;;;;17.86;67.63;101123.88;12928017;22;97910;-84
2023/03/30 22:13:38;;;;;;;23.17;5.25;;;;;;;17.88;67.90;101132.63;12928505;22;99201;-83
2023/03/30 22:18:47;;;;;;;21.92;5.35;;;;;;;17.78;68.35;101110.13;12928423;22;98976;-83
2023/03/30 22:23:53;;;;;;;21.40;5.10;;;;;;;17.84;68.93;101112.47;12928229;22;99107;-83
2023/03/30 22:29:13;;;;;;;22.23;4.60;;;;;;;17.72;70.35;101110.47;12928666;22;99013;-83
2023/03/30 22:34:18;;;;;;;19.58;4.43;;;;;;;17.66;70.41;101125.91;12928446;22;99135;-83
2023/03/30 22:39:22;;;;;;;19.20;4.68;;;;;;;17.69;70.99;101118.59;12927650;22;99089;-83
2023/03/30 22:44:28;;;;;;;13.90;3.25;;;;;;;17.65;71.48;101114.41;12926611;22;99003;-83
2023/03/30 22:49:51;;;;;;;13.18;3.28;;;;;;;17.62;71.80;101113.72;12928074;22;98888;-83
2023/03/30 22:54:56;;;;;;;10.35;2.65;;;;;;;17.61;72.05;101115.50;12928107;22;97875;-84
2023/03/30 23:00:08;;;;;;;9.20;2.13;;;;;;;17.58;72.96;101131.66;12927369;22;98888;-83
2023/03/30 23:05:21;;;;;;;10.43;2.50;;;;;;;17.45;74.31;101133.22;12864175;22;98446;-83
2023/03/30 23:10:32;;;;;;;9.02;2.00;;;;;;;17.44;74.51;101136.84;12863710;22;98980;-83
2023/03/30 23:15:39;;;;;;;9.40;2.03;;;;;;;17.51;75.26;101132.94;12863482;22;99316;-83
2023/03/30 23:20:45;;;;;;;6.65;1.83;;;;;;;17.32;76.47;101145.47;12864399;22;99510;-83
2023/03/30 23:25:51;;;;;;;;;;;;;;;17.27;77.59;101126.25;12864243;22;99241;-83
2023/03/30 23:30:57;;;;;;;8.65;1.90;;;;;;;17.35;76.92;101121.34;12863018;22;98816;-83
2023/03/30 23:36:07;;;;;;;3.85;1.25;;;;;;;17.31;77.42;101119.78;12862172;22;99047;-81
2023/03/30 23:41:15;;;;;;;4.60;1.50;;;;;;;17.40;77.33;101110.47;12863188;22;99130;-83
2023/03/30 23:46:19;;;;;;;6.53;1.55;;;;;;;17.42;77.26;101113.91;12863409;22;98990;-81
2023/03/30 23:51:31;;;;;;;6.65;1.48;;;;;;;17.49;76.85;101107.34;12866085;22;98961;-82
2023/03/30 23:56:40;;;;;;;2.53;1.05;;;;;;;17.43;77.85;101113.81;12865756;22;99012;-83
